Time;durP1;ratioP1;P1;durP2;ratioP2;P2;SDS_P1;SDS_P2;PMS_P1;PMS_P2;Temp;Humidity;BMP_temperature;BMP_pressure;BME280_temperature;BME280_humidity;BME280_pressure;Samples;Min_cycle;Max_cycle;Signal;HPM_P1;HPM_P2
2021/07/12 00:00:34;;;;;;;1.80;1.20;;;18.60;86.20;;;;;;4919480;29;20074;-75
2021/07/12 00:03:00;;;;;;;3.10;1.40;;;18.50;86.50;;;;;;4949672;29;20031;-74
2021/07/12 00:05:26;;;;;;;3.33;1.00;;;18.50;86.60;;;;;;4922448;28;20035;-75
2021/07/12 00:07:52;;;;;;;1.35;1.10;;;18.50;86.90;;;;;;4928667;29;20038;-75
2021/07/12 00:10:21;;;;;;;3.70;1.13;;;18.50;86.80;;;;;;4933001;29;20125;-76
2021/07/12 00:12:48;;;;;;;1.85;1.08;;;18.40;86.50;;;;;;4922989;29;20028;-74
2021/07/12 00:15:16;;;;;;;1.50;1.10;;;18.40;86.80;;;;;;4938339;29;20027;-75
2021/07/12 00:17:42;;;;;;;3.70;1.10;;;18.40;86.90;;;;;;4938414;29;20309;-75
2021/07/12 00:20:09;;;;;;;1.48;1.00;;;18.30;87.20;;;;;;4939063;29;20485;-74
2021/07/12 00:22:35;;;;;;;2.95;1.30;;;18.30;87.20;;;;;;4953019;28;20034;-74
2021/07/12 00:25:01;;;;;;;4.97;1.38;;;18.30;87.40;;;;;;4938976;29;20023;-74
2021/07/12 00:27:27;;;;;;;3.55;1.38;;;18.20;87.50;;;;;;4934319;29;20126;-74
2021/07/12 00:29:53;;;;;;;4.63;1.10;;;18.20;87.80;;;;;;4933023;29;20540;-74
2021/07/12 00:32:19;;;;;;;2.10;1.20;;;18.20;87.60;;;;;;4938376;29;20027;-77
2021/07/12 00:34:45;;;;;;;3.25;1.55;;;18.30;87.30;;;;;;4956620;29;20032;-75
2021/07/12 00:37:10;;;;;;;2.28;1.27;;;18.30;87.40;;;;;;4939490;29;20034;-74
2021/07/12 00:39:36;;;;;;;2.08;1.10;;;18.30;87.50;;;;;;4938481;29;20031;-74
2021/07/12 00:42:01;;;;;;;1.52;1.25;;;18.30;87.50;;;;;;4939536;29;20027;-74
2021/07/12 00:44:27;;;;;;;1.80;1.25;;;18.20;87.60;;;;;;4938970;29;20381;-74
2021/07/12 00:46:56;;;;;;;2.47;1.25;;;18.20;87.50;;;;;;4956571;29;20054;-74
2021/07/12 00:49:22;;;;;;;4.40;1.20;;;18.10;87.60;;;;;;4938900;29;20046;-76
2021/07/12 00:51:49;;;;;;;1.23;1.13;;;18.10;87.70;;;;;;4939236;29;20020;-75
2021/07/12 00:54:15;;;;;;;3.00;1.08;;;18.10;88.10;;;;;;4938976;29;20039;-75
2021/07/12 00:56:41;;;;;;;3.25;1.27;;;18.10;88.00;;;;;;4955512;29;20469;-75
2021/07/12 00:59:07;;;;;;;1.30;1.20;;;18.00;88.20;;;;;;4955924;29;20098;-75
2021/07/12 01:01:33;;;;;;;4.35;1.27;;;18.00;88.10;;;;;;4955112;29;20097;-75
2021/07/12 01:03:59;;;;;;;4.47;1.38;;;17.90;88.40;;;;;;4956113;29;20416;-74
2021/07/12 01:06:26;;;;;;;2.25;1.50;;;17.90;88.50;;;;;;4937951;29;20173;-75
2021/07/12 01:08:51;;;;;;;3.55;1.20;;;17.90;88.80;;;;;;4938959;29;20122;-74
2021/07/12 01:11:37;;;;;;;2.90;1.48;;;17.90;89.00;;;;;;4938733;29;20175;-74
2021/07/12 01:14:58;;;;;;;2.28;1.55;;;17.80;89.10;;;;;;4955805;29;20500;-74
2021/07/12 01:17:58;;;;;;;2.83;1.30;;;17.80;89.10;;;;;;4921992;29;20043;-77
2021/07/12 01:20:41;;;;;;;2.53;1.40;;;17.70;89.20;;;;;;4938078;29;20031;-77
2021/07/12 01:23:42;;;;;;;2.33;1.35;;;17.70;89.20;;;;;;4938487;29;20067;-75
2021/07/12 01:26:33;;;;;;;2.80;1.40;;;17.60;89.60;;;;;;4938840;29;20082;-74
2021/07/12 01:29:47;;;;;;;2.60;1.38;;;17.60;89.40;;;;;;4938465;29;20130;-75
2021/07/12 01:32:13;;;;;;;5.25;1.30;;;17.60;89.80;;;;;;4925885;29;20031;-75
2021/07/12 01:35:02;;;;;;;1.80;1.50;;;17.50;89.40;;;;;;4954889;29;20050;-75
2021/07/12 01:37:30;;;;;;;2.10;1.35;;;17.60;89.60;;;;;;4937676;29;20421;-75
2021/07/12 01:40:07;;;;;;;2.28;1.33;;;17.60;89.60;;;;;;4955063;29;20035;-75
2021/07/12 01:42:39;;;;;;;2.90;1.77;;;17.50;89.50;;;;;;4937617;29;20065;-75
2021/07/12 01:45:09;;;;;;;3.92;1.50;;;17.50;89.70;;;;;;4955476;29;20059;-74
2021/07/12 01:47:53;;;;;;;1.70;1.30;;;17.50;89.90;;;;;;4954669;29;20024;-75
2021/07/12 01:50:31;;;;;;;1.88;1.50;;;17.50;89.80;;;;;;4938056;29;20082;-74
2021/07/12 01:53:14;;;;;;;4.53;1.35;;;17.40;89.70;;;;;;4955359;29;20086;-74
2021/07/12 01:55:39;;;;;;;3.17;1.20;;;17.40;89.90;;;;;;4937611;29;20125;-74
2021/07/12 01:58:17;;;;;;;3.50;1.48;;;17.40;89.80;;;;;;4938074;29;20480;-74
2021/07/12 02:00:48;;;;;;;2.50;1.50;;;17.30;90.00;;;;;;4937211;29;20561;-74
2021/07/12 02:03:19;;;;;;;3.78;1.75;;;17.30;90.10;;;;;;4938141;29;20027;-74
2021/07/12 02:05:46;;;;;;;1.35;1.25;;;17.30;90.10;;;;;;4954606;29;20055;-74
2021/07/12 02:08:18;;;;;;;5.60;1.75;;;17.20;90.20;;;;;;4955263;29;20027;-74
2021/07/12 02:10:44;;;;;;;;;;;17.20;90.20;;;;;;4937672;29;20062;-74
2021/07/12 02:13:10;;;;;;;1.70;1.50;;;17.20;90.30;;;;;;4937921;29;19906;-74
2021/07/12 02:15:36;;;;;;;1.50;1.33;;;17.20;90.20;;;;;;4937215;29;20065;-74
2021/07/12 02:18:04;;;;;;;2.35;1.38;;;17.10;90.20;;;;;;4937957;29;20066;-74
2021/07/12 02:20:31;;;;;;;1.70;1.38;;;17.20;90.40;;;;;;4954241;29;20035;-74
2021/07/12 02:22:57;;;;;;;2.67;1.70;;;17.10;90.50;;;;;;4954968;29;20023;-74
2021/07/12 02:25:23;;;;;;;2.35;1.73;;;17.20;90.30;;;;;;4937707;29;20054;-73
2021/07/12 02:27:50;;;;;;;4.10;2.15;;;17.20;90.30;;;;;;4936920;29;20033;-74
2021/07/12 02:30:16;;;;;;;2.80;1.45;;;17.20;90.30;;;;;;4936843;29;20035;-73
2021/07/12 02:32:44;;;;;;;3.22;1.83;;;17.20;90.40;;;;;;4953686;29;20031;-74
2021/07/12 02:35:12;;;;;;;1.80;1.48;;;17.20;90.30;;;;;;4937398;29;20066;-74
2021/07/12 02:37:40;;;;;;;3.72;1.50;;;17.20;90.30;;;;;;4936709;29;20027;-74
2021/07/12 02:40:11;;;;;;;2.17;1.60;;;17.20;90.30;;;;;;4954425;29;20031;-74
2021/07/12 02:42:40;;;;;;;2.50;1.77;;;17.20;90.30;;;;;;4953725;29;20469;-74
2021/07/12 02:45:08;;;;;;;3.28;1.60;;;17.20;90.20;;;;;;4937182;29;20035;-74
2021/07/12 02:47:35;;;;;;;3.30;1.65;;;17.10;90.20;;;;;;4936726;29;20031;-74
2021/07/12 02:50:02;;;;;;;2.20;1.50;;;17.20;90.40;;;;;;4937471;29;20032;-73
2021/07/12 02:52:40;;;;;;;2.03;1.40;;;17.20;90.30;;;;;;4936956;29;20461;-76
2021/07/12 02:55:06;;;;;;;4.53;1.58;;;17.20;90.20;;;;;;4950451;29;20039;-74
2021/07/12 02:57:31;;;;;;;1.75;1.40;;;17.20;90.30;;;;;;4936265;29;20066;-75
2021/07/12 02:59:57;;;;;;;5.65;1.67;;;17.20;90.30;;;;;;4924966;29;20087;-74
2021/07/12 03:02:23;;;;;;;3.92;1.85;;;17.20;90.30;;;;;;4935286;29;20032;-74
2021/07/12 03:04:49;;;;;;;2.42;1.30;;;17.20;90.20;;;;;;4917603;29;20656;-75
2021/07/12 03:07:20;;;;;;;3.53;1.30;;;17.20;90.70;;;;;;4934972;29;20083;-74
2021/07/12 03:09:51;;;;;;;1.88;1.60;;;17.10;90.20;;;;;;4917353;29;20094;-74
2021/07/12 03:12:29;;;;;;;2.22;1.77;;;17.00;90.20;;;;;;4918083;29;20096;-74
2021/07/12 03:15:08;;;;;;;2.47;1.63;;;17.00;90.40;;;;;;4934681;29;20031;-74
2021/07/12 03:17:39;;;;;;;2.97;1.45;;;17.00;90.40;;;;;;4934585;29;20023;-75
2021/07/12 03:20:06;;;;;;;4.07;1.67;;;17.00;90.40;;;;;;4918175;29;20119;-74
2021/07/12 03:22:34;;;;;;;3.88;1.63;;;17.00;90.40;;;;;;4917605;29;20039;-75
2021/07/12 03:25:01;;;;;;;3.20;1.50;;;16.90;90.20;;;;;;4934839;29;20028;-74
2021/07/12 03:27:27;;;;;;;2.85;1.80;;;16.90;90.40;;;;;;4917514;29;20055;-74
2021/07/12 03:29:54;;;;;;;7.40;1.98;;;16.90;90.40;;;;;;4934601;29;20504;-74
2021/07/12 03:32:27;;;;;;;3.10;1.90;;;16.90;90.40;;;;;;4917949;29;20091;-74
2021/07/12 03:34:54;;;;;;;3.67;1.90;;;16.80;90.50;;;;;;4934261;29;20079;-74
2021/07/12 03:37:20;;;;;;;4.38;1.83;;;16.70;90.60;;;;;;4934917;29;20165;-74
2021/07/12 03:39:47;;;;;;;8.40;2.10;;;16.70;90.70;;;;;;4933656;29;20036;-74
2021/07/12 03:42:13;;;;;;;2.83;1.63;;;16.70;90.80;;;;;;4921019;29;20036;-74
2021/07/12 03:44:39;;;;;;;3.40;1.88;;;16.80;90.70;;;;;;4920018;29;20039;-74
2021/07/12 03:47:05;;;;;;;2.15;1.88;;;16.80;90.60;;;;;;4938634;29;20091;-73
2021/07/12 03:49:31;;;;;;;3.05;1.77;;;16.80;90.60;;;;;;4921164;29;20028;-75
2021/07/12 03:51:59;;;;;;;1.83;1.58;;;16.80;90.60;;;;;;4938347;29;20067;-74
2021/07/12 03:54:25;;;;;;;4.07;1.92;;;16.80;90.60;;;;;;4920968;29;20086;-74
2021/07/12 03:56:51;;;;;;;2.67;1.75;;;16.80;90.60;;;;;;4937767;29;20032;-74
2021/07/12 03:59:17;;;;;;;2.75;1.90;;;16.80;90.60;;;;;;4927250;29;20059;-74
2021/07/12 04:01:43;;;;;;;7.45;2.35;;;16.70;90.70;;;;;;4939418;29;20436;-74
2021/07/12 04:04:09;;;;;;;3.75;1.92;;;16.70;90.80;;;;;;4940170;29;20035;-73
2021/07/12 04:06:35;;;;;;;4.05;2.10;;;16.70;91.00;;;;;;4939417;29;20483;-76
2021/07/12 04:09:00;;;;;;;3.75;1.92;;;16.70;90.90;;;;;;4940185;29;20031;-74
2021/07/12 04:11:34;;;;;;;5.05;2.15;;;16.70;90.80;;;;;;4939449;29;20479;-74
2021/07/12 04:14:00;;;;;;;2.72;1.90;;;16.70;90.90;;;;;;4939796;29;20059;-73
2021/07/12 04:16:26;;;;;;;1.92;1.65;;;16.70;90.90;;;;;;4939881;29;20023;-74
2021/07/12 04:18:51;;;;;;;4.68;1.85;;;16.70;90.90;;;;;;4939165;29;20778;-74
2021/07/12 04:21:17;;;;;;;1.77;1.52;;;16.80;90.80;;;;;;4939784;29;20033;-73
2021/07/12 04:23:43;;;;;;;2.15;1.90;;;16.80;90.80;;;;;;4939211;29;20126;-74
2021/07/12 04:26:09;;;;;;;2.83;1.70;;;16.90;90.80;;;;;;4939540;29;20058;-73
2021/07/12 04:28:34;;;;;;;3.17;1.80;;;16.80;90.70;;;;;;4956504;29;20547;-77
2021/07/12 04:31:00;;;;;;;5.97;1.70;;;16.90;90.70;;;;;;4939410;29;20083;-73
2021/07/12 04:33:26;;;;;;;3.33;1.70;;;16.90;90.80;;;;;;4956763;29;20381;-74
2021/07/12 04:35:53;;;;;;;3.95;1.90;;;17.00;90.90;;;;;;4938993;29;20122;-74
2021/07/12 04:38:19;;;;;;;3.03;2.10;;;17.00;90.70;;;;;;4956712;29;20483;-73
2021/07/12 04:40:45;;;;;;;3.78;2.22;;;17.00;90.90;;;;;;4938987;29;20031;-74
2021/07/12 04:43:10;;;;;;;2.38;1.58;;;17.00;90.70;;;;;;4956770;29;20081;-73
2021/07/12 04:45:36;;;;;;;3.03;1.52;;;17.00;90.60;;;;;;4938794;29;20358;-76
2021/07/12 04:48:02;;;;;;;3.08;2.10;;;17.00;90.80;;;;;;4955934;29;20038;-73
2021/07/12 04:50:28;;;;;;;3.70;1.90;;;17.10;90.80;;;;;;4956634;29;20354;-74
2021/07/12 04:52:53;;;;;;;3.13;1.80;;;17.10;90.70;;;;;;4955042;28;20220;-73
2021/07/12 04:55:19;;;;;;;4.30;1.70;;;17.10;90.80;;;;;;4939206;29;20035;-73
2021/07/12 04:57:46;;;;;;;2.83;1.77;;;17.10;90.80;;;;;;4938615;29;20027;-73
2021/07/12 05:00:12;;;;;;;2.92;1.80;;;17.20;90.80;;;;;;4955827;29;20150;-74
2021/07/12 05:02:41;;;;;;;4.10;1.80;;;17.20;90.90;;;;;;4955573;29;20038;-75
2021/07/12 05:05:11;;;;;;;3.75;1.83;;;17.20;90.80;;;;;;4938899;29;20039;-73
2021/07/12 05:07:39;;;;;;;2.42;1.52;;;17.20;91.20;;;;;;4955967;29;20028;-76
2021/07/12 05:10:06;;;;;;;2.85;1.70;;;17.20;91.00;;;;;;4939178;29;20106;-75
2021/07/12 05:12:32;;;;;;;3.80;1.58;;;17.20;91.10;;;;;;4938892;29;20035;-74
2021/07/12 05:14:58;;;;;;;2.65;1.88;;;17.20;90.90;;;;;;4955535;29;20015;-74
2021/07/12 05:17:23;;;;;;;4.10;2.00;;;17.20;91.00;;;;;;4938881;29;20027;-74
2021/07/12 05:19:49;;;;;;;2.40;1.60;;;17.30;91.00;;;;;;4954699;29;20039;-74
2021/07/12 05:22:15;;;;;;;3.58;1.70;;;17.30;91.20;;;;;;4938306;29;20042;-74
2021/07/12 05:24:40;;;;;;;2.75;1.60;;;17.40;91.20;;;;;;4938129;29;20023;-74
2021/07/12 05:27:06;;;;;;;2.85;1.55;;;17.50;91.10;;;;;;4938447;29;20054;-74
2021/07/12 05:29:32;;;;;;;3.75;1.52;;;17.50;91.10;;;;;;4938379;29;20039;-74
2021/07/12 05:31:58;;;;;;;3.30;1.63;;;17.50;91.20;;;;;;4954659;29;20183;-74
2021/07/12 05:34:24;;;;;;;2.85;1.65;;;17.60;91.20;;;;;;4938527;29;20479;-74
2021/07/12 05:36:50;;;;;;;2.50;1.77;;;17.60;90.90;;;;;;4937447;29;20517;-74
2021/07/12 05:39:15;;;;;;;2.65;1.67;;;17.60;90.80;;;;;;4955352;29;20429;-74
2021/07/12 05:41:41;;;;;;;1.77;1.55;;;17.60;90.80;;;;;;4936852;29;20397;-77
2021/07/12 05:44:07;;;;;;;3.22;1.70;;;17.60;90.80;;;;;;4955342;29;20057;-75
2021/07/12 05:46:33;;;;;;;2.17;1.50;;;17.60;91.10;;;;;;4954548;29;20427;-74
2021/07/12 05:48:58;;;;;;;4.57;1.77;;;17.60;90.90;;;;;;4954447;29;20094;-74
2021/07/12 05:51:24;;;;;;;3.63;1.42;;;17.70;90.80;;;;;;4937785;29;20041;-74
2021/07/12 05:53:50;;;;;;;2.05;1.55;;;17.80;90.70;;;;;;4937381;29;20469;-74
2021/07/12 05:56:15;;;;;;;2.63;1.80;;;17.80;90.60;;;;;;4955163;29;20031;-74
2021/07/12 05:58:41;;;;;;;3.35;1.35;;;17.90;90.80;;;;;;4954412;29;20435;-76
2021/07/12 06:01:07;;;;;;;2.40;1.60;;;18.00;90.80;;;;;;4937817;29;20042;-74
2021/07/12 06:03:32;;;;;;;2.33;1.48;;;18.00;90.80;;;;;;4955042;28;20078;-73
2021/07/12 06:05:58;;;;;;;3.28;1.60;;;18.10;90.80;;;;;;4936787;29;20050;-74
2021/07/12 06:08:24;;;;;;;3.88;1.38;;;18.10;90.80;;;;;;4937326;29;20027;-74
2021/07/12 06:10:49;;;;;;;1.75;1.17;;;18.30;90.60;;;;;;4951824;29;20050;-74
2021/07/12 06:13:15;;;;;;;2.95;1.50;;;18.30;90.30;;;;;;4927905;29;20019;-74
2021/07/12 06:15:41;;;;;;;3.05;1.38;;;18.30;90.10;;;;;;4923450;29;20027;-77
2021/07/12 06:18:14;;;;;;;2.88;1.48;;;18.40;90.20;;;;;;4937737;29;20027;-74
2021/07/12 06:20:41;;;;;;;2.38;1.40;;;18.50;90.30;;;;;;4937271;29;20465;-77
2021/07/12 06:23:07;;;;;;;3.85;1.60;;;18.60;90.20;;;;;;4937280;29;20113;-74
2021/07/12 06:25:33;;;;;;;1.70;1.30;;;18.70;89.70;;;;;;4937331;29;20493;-74
2021/07/12 06:27:59;;;;;;;3.08;1.55;;;18.70;88.90;;;;;;4937719;29;20110;-74
2021/07/12 06:30:24;;;;;;;2.88;1.50;;;18.80;88.60;;;;;;4955321;29;20487;-74
2021/07/12 06:32:50;;;;;;;4.88;1.30;;;18.90;88.80;;;;;;4936596;29;20070;-74
2021/07/12 06:35:16;;;;;;;3.90;1.40;;;19.00;88.50;;;;;;4937150;29;20122;-74
2021/07/12 06:37:42;;;;;;;2.65;1.10;;;19.00;88.00;;;;;;4937063;29;20110;-75
2021/07/12 06:40:08;;;;;;;1.83;1.30;;;19.10;88.10;;;;;;4937200;29;20540;-79
2021/07/12 06:42:34;;;;;;;1.58;1.35;;;19.10;87.60;;;;;;4937047;29;20054;-76
2021/07/12 06:45:00;;;;;;;1.65;1.20;;;19.20;88.20;;;;;;4936865;29;20508;-77
2021/07/12 06:47:26;;;;;;;1.88;1.13;;;19.30;88.70;;;;;;4936651;29;20055;-72
2021/07/12 06:49:52;;;;;;;1.55;1.30;;;19.30;88.50;;;;;;4962565;28;20113;-79
2021/07/12 06:52:18;;;;;;;2.15;1.10;;;19.30;87.80;;;;;;4937844;29;20110;-77
2021/07/12 06:54:47;;;;;;;3.42;1.20;;;19.40;87.20;;;;;;4937656;29;20033;-80
2021/07/12 06:57:14;;;;;;;2.63;1.30;;;19.50;86.80;;;;;;4954738;29;20031;-77
2021/07/12 06:59:40;;;;;;;2.33;1.17;;;19.50;86.50;;;;;;4932829;29;20520;-76
2021/07/12 07:02:05;;;;;;;2.00;1.17;;;19.60;86.10;;;;;;4917871;29;20027;-76
2021/07/12 07:04:31;;;;;;;2.03;1.33;;;19.70;86.50;;;;;;4920713;29;20869;-78
2021/07/12 07:06:57;;;;;;;2.83;1.40;;;19.80;86.10;;;;;;4937506;29;20023;-77
2021/07/12 07:09:22;;;;;;;1.20;1.10;;;19.90;86.10;;;;;;4937131;29;20031;-77
2021/07/12 07:11:48;;;;;;;1.95;1.20;;;20.00;86.00;;;;;;4936722;29;20031;-77
2021/07/12 07:14:14;;;;;;;3.70;1.13;;;20.00;86.10;;;;;;4954472;29;20081;-78
2021/07/12 07:16:39;;;;;;;1.92;1.17;;;20.10;85.40;;;;;;4939579;29;20165;-77
2021/07/12 07:19:05;;;;;;;2.72;1.00;;;20.20;85.10;;;;;;4940776;29;20031;-82
2021/07/12 07:21:31;;;;;;;2.58;1.30;;;20.30;84.90;;;;;;4942435;29;20469;-83
2021/07/12 07:23:56;;;;;;;2.72;1.30;;;20.30;84.70;;;;;;4941696;29;20035;-84
2021/07/12 07:26:22;;;;;;;2.22;1.10;;;20.40;85.10;;;;;;4958651;29;20030;-84
2021/07/12 07:28:48;;;;;;;2.20;1.20;;;20.40;85.50;;;;;;4958744;29;20050;-79
2021/07/12 07:31:14;;;;;;;2.92;1.10;;;20.50;85.20;;;;;;4941206;29;20059;-77
2021/07/12 07:33:41;;;;;;;1.23;1.10;;;20.50;86.60;;;;;;4963461;28;20491;-78
2021/07/12 07:36:06;;;;;;;1.00;0.90;;;20.60;85.70;;;;;;4957060;28;20030;-80
2021/07/12 07:38:32;;;;;;;2.08;0.95;;;20.60;85.30;;;;;;4940582;29;20034;-79
2021/07/12 07:40:58;;;;;;;2.97;1.00;;;20.80;85.50;;;;;;4957072;29;20050;-81
2021/07/12 07:43:24;;;;;;;1.92;1.02;;;20.80;85.30;;;;;;4941342;29;20055;-82
2021/07/12 07:45:50;;;;;;;1.60;1.17;;;20.90;85.20;;;;;;4941116;29;20034;-80
2021/07/12 07:48:16;;;;;;;2.45;1.30;;;21.00;83.60;;;;;;4940540;29;20142;-78
2021/07/12 07:50:43;;;;;;;3.00;1.15;;;21.10;83.80;;;;;;4940699;29;20134;-78
2021/07/12 07:53:10;;;;;;;2.85;1.20;;;21.20;82.50;;;;;;4940421;29;20027;-79
2021/07/12 07:55:35;;;;;;;1.77;1.02;;;21.30;81.90;;;;;;4940775;29;20031;-77
2021/07/12 07:58:02;;;;;;;3.95;1.02;;;21.40;81.90;;;;;;4939464;29;20479;-77
2021/07/12 08:00:29;;;;;;;2.45;1.02;;;21.50;81.80;;;;;;4957019;29;20055;-77
2021/07/12 08:02:55;;;;;;;3.35;0.70;;;21.60;81.20;;;;;;4939901;29;20063;-78
2021/07/12 08:05:21;;;;;;;1.20;1.10;;;21.70;80.30;;;;;;4956664;29;20031;-78
2021/07/12 08:07:46;;;;;;;1.95;0.85;;;21.80;80.40;;;;;;4939414;29;20114;-78
2021/07/12 08:10:15;;;;;;;1.95;0.80;;;21.80;79.40;;;;;;4957491;29;20440;-82
2021/07/12 08:12:41;;;;;;;0.80;0.80;;;21.90;80.00;;;;;;4958361;29;20027;-81
2021/07/12 08:15:08;;;;;;;2.10;0.90;;;22.00;79.20;;;;;;4940491;29;20066;-83
2021/07/12 08:17:35;;;;;;;2.50;0.93;;;22.10;79.10;;;;;;4940350;29;20032;-77
2021/07/12 08:20:00;;;;;;;2.25;1.05;;;22.30;78.70;;;;;;4923301;29;20473;-79
2021/07/12 08:22:26;;;;;;;5.97;0.90;;;22.30;77.10;;;;;;4920742;29;20059;-78
2021/07/12 08:24:52;;;;;;;1.95;1.05;;;22.30;77.80;;;;;;4920092;29;20027;-77
2021/07/12 08:27:17;;;;;;;1.75;0.90;;;22.40;76.70;;;;;;4936979;29;20382;-78
2021/07/12 08:29:43;;;;;;;2.60;1.00;;;22.40;76.90;;;;;;4938535;29;20112;-80
2021/07/12 08:32:09;;;;;;;0.75;0.70;;;22.50;76.90;;;;;;4937134;29;20077;-79
2021/07/12 08:34:41;;;;;;;3.83;0.75;;;22.60;76.80;;;;;;4937456;29;20032;-78
2021/07/12 08:37:08;;;;;;;2.08;0.90;;;22.60;76.50;;;;;;4920256;29;20054;-80
2021/07/12 08:39:34;;;;;;;2.55;0.93;;;22.70;77.20;;;;;;4908406;29;20126;-79
2021/07/12 08:42:00;;;;;;;1.83;1.02;;;22.70;76.70;;;;;;4953669;29;20099;-79
2021/07/12 08:44:29;;;;;;;2.13;0.70;;;22.70;76.30;;;;;;4938628;29;20027;-79
2021/07/12 08:46:55;;;;;;;0.70;0.70;;;22.80;75.10;;;;;;4924227;29;20058;-78
2021/07/12 08:49:21;;;;;;;1.65;1.02;;;22.80;75.30;;;;;;4949166;29;20061;-78
2021/07/12 08:51:46;;;;;;;1.85;0.80;;;22.90;76.20;;;;;;4938463;29;20059;-80
2021/07/12 08:54:12;;;;;;;0.98;0.75;;;23.00;75.60;;;;;;4938667;29;20042;-77
2021/07/12 08:56:38;;;;;;;1.55;0.82;;;23.00;74.90;;;;;;4954565;29;20031;-78
2021/07/12 08:59:27;;;;;;;2.92;0.77;;;23.10;75.00;;;;;;4936471;29;20151;-78
2021/07/12 09:02:06;;;;;;;1.48;0.88;;;23.10;74.00;;;;;;4931158;29;20073;-77
2021/07/12 09:04:34;;;;;;;1.90;0.88;;;23.20;75.10;;;;;;4930615;29;20034;-77
2021/07/12 09:07:08;;;;;;;3.55;1.10;;;23.30;74.00;;;;;;4919605;29;20035;-79
2021/07/12 09:09:34;;;;;;;1.05;0.90;;;23.40;73.60;;;;;;4920281;29;20473;-77
2021/07/12 09:12:17;;;;;;;3.15;0.80;;;23.40;73.90;;;;;;4949214;29;20023;-78
2021/07/12 09:15:04;;;;;;;0.90;0.70;;;23.50;73.00;;;;;;4938871;29;20094;-77
2021/07/12 09:17:32;;;;;;;0.98;0.90;;;23.50;73.10;;;;;;4930056;29;20020;-77
2021/07/12 09:19:58;;;;;;;3.65;1.08;;;23.60;73.60;;;;;;4951205;29;20114;-81
2021/07/12 09:22:40;;;;;;;1.98;1.00;;;23.60;73.00;;;;;;4922981;29;20032;-79
2021/07/12 09:25:15;;;;;;;2.08;0.93;;;23.70;73.00;;;;;;4924495;29;20015;-81
2021/07/12 09:27:42;;;;;;;2.40;0.95;;;23.80;73.30;;;;;;4938177;29;20023;-77
2021/07/12 09:30:12;;;;;;;1.20;0.93;;;23.80;73.10;;;;;;4955349;29;20039;-77
2021/07/12 09:32:40;;;;;;;1.73;0.73;;;23.80;72.70;;;;;;4922455;29;20031;-77
2021/07/12 09:35:10;;;;;;;2.30;1.10;;;23.90;73.20;;;;;;4952582;28;20019;-77
2021/07/12 09:37:41;;;;;;;2.00;1.00;;;23.90;72.60;;;;;;4933904;29;20487;-78
2021/07/12 09:40:09;;;;;;;1.45;0.70;;;23.90;72.60;;;;;;4923836;29;20036;-85
2021/07/12 09:42:39;;;;;;;1.92;0.77;;;24.00;73.40;;;;;;4934745;29;20035;-80
2021/07/12 09:45:07;;;;;;;1.98;0.80;;;24.10;73.50;;;;;;4923846;29;20020;-80
2021/07/12 09:47:36;;;;;;;1.08;0.77;;;24.20;72.40;;;;;;4955486;29;20074;-80
2021/07/12 09:50:08;;;;;;;2.70;1.20;;;24.20;72.20;;;;;;4942999;29;20032;-77
2021/07/12 09:52:40;;;;;;;2.38;1.30;;;24.30;73.20;;;;;;4953124;29;20027;-78
2021/07/12 09:55:06;;;;;;;;;;;24.40;72.80;;;;;;4938081;29;20019;-78
2021/07/12 09:57:33;;;;;;;4.20;1.08;;;24.40;71.90;;;;;;4935656;29;19922;-78
2021/07/12 10:00:04;;;;;;;3.40;1.10;;;24.50;71.30;;;;;;4925832;29;20074;-81
2021/07/12 10:02:32;;;;;;;3.85;1.00;;;24.50;71.20;;;;;;4934384;29;20069;-81
2021/07/12 10:05:05;;;;;;;2.75;0.90;;;24.60;70.30;;;;;;4922396;29;20027;-81
2021/07/12 10:07:32;;;;;;;2.22;0.90;;;24.60;70.00;;;;;;4947003;29;20022;-81
2021/07/12 10:09:59;;;;;;;2.75;0.90;;;24.70;70.30;;;;;;4930742;29;20024;-81
2021/07/12 10:12:26;;;;;;;1.40;0.98;;;24.70;69.80;;;;;;4936360;29;20035;-81
2021/07/12 10:14:52;;;;;;;3.30;1.02;;;24.80;70.20;;;;;;4931876;29;20361;-85
2021/07/12 10:17:24;;;;;;;3.75;1.30;;;24.80;69.90;;;;;;4929971;29;20030;-82
2021/07/12 10:19:50;;;;;;;1.30;1.20;;;24.90;69.30;;;;;;4954300;29;20035;-84
2021/07/12 10:22:16;;;;;;;2.78;1.13;;;24.90;69.00;;;;;;4937068;29;20466;-80
2021/07/12 10:24:47;;;;;;;2.20;1.15;;;24.90;69.30;;;;;;4935321;29;20479;-79
2021/07/12 10:27:23;;;;;;;1.95;1.00;;;25.00;69.70;;;;;;4922931;29;20023;-80
2021/07/12 10:29:51;;;;;;;1.52;1.00;;;25.10;70.20;;;;;;4936708;29;20043;-80
2021/07/12 10:32:24;;;;;;;1.35;1.00;;;25.10;69.80;;;;;;4936459;29;20046;-78
2021/07/12 10:34:52;;;;;;;4.22;1.20;;;25.20;70.70;;;;;;4950180;29;20032;-78
2021/07/12 10:37:26;;;;;;;2.75;1.30;;;25.30;69.00;;;;;;4952242;29;20019;-78
2021/07/12 10:40:11;;;;;;;2.33;0.73;;;25.30;67.60;;;;;;4923138;29;20035;-76
2021/07/12 10:42:42;;;;;;;3.50;1.00;;;25.40;67.80;;;;;;4933449;29;20465;-78
2021/07/12 10:45:22;;;;;;;0.70;0.68;;;25.40;67.40;;;;;;4922215;29;20341;-78
2021/07/12 10:48:20;;;;;;;2.22;1.00;;;25.40;67.10;;;;;;4926281;29;20086;-78
2021/07/12 10:50:51;;;;;;;6.30;1.58;;;25.40;67.40;;;;;;4875806;29;20495;-78
2021/07/12 10:53:20;;;;;;;;;;;25.40;67.70;;;;;;4883785;29;20127;-79
2021/07/12 10:56:03;;;;;;;3.95;1.23;;;25.40;67.50;;;;;;4876307;29;19911;-82
2021/07/12 10:58:34;;;;;;;1.52;1.30;;;25.40;68.10;;;;;;4876130;29;20033;-79
2021/07/12 11:01:08;;;;;;;1.10;1.00;;;25.40;67.30;;;;;;4876177;29;20049;-86
2021/07/12 11:03:45;;;;;;;2.90;1.20;;;25.40;67.40;;;;;;4876841;29;20034;-79
2021/07/12 11:06:13;;;;;;;2.28;1.17;;;25.40;67.40;;;;;;4859551;29;20507;-78
2021/07/12 11:08:45;;;;;;;2.25;1.27;;;25.40;66.40;;;;;;4875663;29;20120;-78
2021/07/12 11:11:31;;;;;;;5.38;1.02;;;25.40;66.40;;;;;;4875658;29;20088;-80
2021/07/12 11:14:08;;;;;;;2.15;1.02;;;25.50;66.60;;;;;;4871930;29;20128;-78
2021/07/12 11:16:36;;;;;;;2.42;1.00;;;25.40;67.40;;;;;;4876401;29;20221;-81
2021/07/12 11:19:33;;;;;;;2.63;1.00;;;25.40;67.10;;;;;;4878973;29;20132;-80
2021/07/12 11:22:13;;;;;;;1.00;0.90;;;25.40;66.80;;;;;;4870487;29;20044;-79
2021/07/12 11:25:08;;;;;;;2.03;1.10;;;25.40;68.30;;;;;;4860527;29;20517;-83
2021/07/12 11:27:42;;;;;;;5.80;1.17;;;25.40;68.60;;;;;;4917791;29;20027;-82
2021/07/12 11:30:30;;;;;;;1.90;0.80;;;25.50;68.10;;;;;;4931391;29;20035;-81
2021/07/12 11:32:56;;;;;;;1.80;1.05;;;25.60;68.20;;;;;;4926587;29;20046;-78
2021/07/12 11:35:23;;;;;;;2.53;1.00;;;25.80;67.40;;;;;;4946222;29;20024;-78
2021/07/12 11:37:49;;;;;;;1.52;1.10;;;26.00;65.00;;;;;;4928426;29;20498;-79
2021/07/12 11:40:15;;;;;;;2.13;0.85;;;26.20;64.40;;;;;;4921346;29;20032;-79
2021/07/12 11:42:42;;;;;;;1.95;0.70;;;26.40;64.70;;;;;;4952363;29;20110;-79
2021/07/12 11:45:19;;;;;;;2.80;1.13;;;26.50;61.60;;;;;;4943361;29;20078;-79
2021/07/12 11:47:47;;;;;;;4.90;1.25;;;26.50;62.00;;;;;;4926021;29;20024;-79
2021/07/12 11:50:18;;;;;;;1.65;1.00;;;26.60;63.80;;;;;;4935629;29;20031;-78
2021/07/12 11:52:47;;;;;;;3.72;1.10;;;26.70;62.60;;;;;;4920568;29;20028;-80
2021/07/12 11:55:16;;;;;;;1.27;0.88;;;26.70;59.90;;;;;;4929718;29;20031;-79
2021/07/12 11:57:46;;;;;;;3.47;1.15;;;26.80;61.10;;;;;;4927614;29;20042;-79
2021/07/12 12:00:15;;;;;;;1.58;0.95;;;26.90;60.30;;;;;;4921301;29;20052;-79
2021/07/12 12:02:41;;;;;;;1.38;0.80;;;27.00;61.50;;;;;;4936646;29;20482;-79
2021/07/12 12:05:09;;;;;;;2.20;0.95;;;27.10;61.60;;;;;;4920406;29;20168;-78
2021/07/12 12:07:47;;;;;;;4.90;1.05;;;27.20;61.40;;;;;;4920078;29;20032;-77
2021/07/12 12:10:34;;;;;;;1.35;1.10;;;27.30;60.50;;;;;;4920225;29;20547;-77
2021/07/12 12:13:08;;;;;;;2.20;1.10;;;27.30;59.50;;;;;;4905761;29;20023;-77
2021/07/12 12:15:36;;;;;;;3.08;0.90;;;27.40;58.90;;;;;;4920404;29;20024;-77
2021/07/12 12:18:06;;;;;;;1.23;0.90;;;27.40;60.00;;;;;;4919611;29;20035;-77
2021/07/12 12:20:39;;;;;;;0.98;0.80;;;27.30;59.50;;;;;;4919887;29;20031;-79
2021/07/12 12:23:21;;;;;;;1.55;1.30;;;27.10;60.30;;;;;;4919934;29;20465;-78
2021/07/12 12:26:06;;;;;;;3.33;0.80;;;27.10;59.60;;;;;;4919603;29;20027;-77
2021/07/12 12:28:33;;;;;;;1.92;0.90;;;27.00;59.50;;;;;;4920004;29;20071;-79
2021/07/12 12:31:08;;;;;;;1.38;0.88;;;27.00;61.70;;;;;;4937111;29;20020;-77
2021/07/12 12:33:37;;;;;;;2.85;1.15;;;27.00;62.80;;;;;;4919928;29;20086;-77
2021/07/12 12:36:06;;;;;;;2.90;1.27;;;27.00;62.60;;;;;;4936846;29;20059;-82
2021/07/12 12:38:32;;;;;;;3.05;1.10;;;27.00;62.40;;;;;;4921026;29;20042;-82
2021/07/12 12:41:01;;;;;;;8.45;2.10;;;27.10;61.70;;;;;;4920227;29;20470;-76
2021/07/12 12:43:27;;;;;;;21.48;4.72;;;27.20;61.80;;;;;;4922654;29;20035;-77
2021/07/12 12:45:55;;;;;;;6.60;2.35;;;27.40;62.20;;;;;;4919192;29;20477;-77
2021/07/12 12:48:36;;;;;;;16.85;3.40;;;27.60;61.00;;;;;;4916833;29;20028;-76
2021/07/12 12:51:24;;;;;;;3.50;1.63;;;27.60;61.70;;;;;;4905525;29;20375;-77
2021/07/12 12:54:16;;;;;;;4.53;1.13;;;27.80;60.60;;;;;;4920316;29;20031;-77
2021/07/12 12:56:47;;;;;;;2.03;0.80;;;27.90;57.50;;;;;;4915863;29;20512;-77
2021/07/12 12:59:13;;;;;;;7.28;2.20;;;28.20;58.50;;;;;;4919059;29;20060;-76